sensor_id;sensor_type;location;lat;lon;timestamp;P1;durP1;ratioP1;P2;durP2;ratioP2
9256;SDS011;4665;51.368;6.782;2023-05-02T00:00:29;15.33;;;13.83;;
9256;SDS011;4665;51.368;6.782;2023-05-02T00:02:56;18.60;;;16.53;;
9256;SDS011;4665;51.368;6.782;2023-05-02T00:05:21;18.93;;;16.80;;
9256;SDS011;4665;51.368;6.782;2023-05-02T00:07:47;18.93;;;16.93;;
9256;SDS011;4665;51.368;6.782;2023-05-02T00:10:13;19.77;;;17.67;;
9256;SDS011;4665;51.368;6.782;2023-05-02T00:12:38;21.47;;;19.47;;
9256;SDS011;4665;51.368;6.782;2023-05-02T00:15:04;21.47;;;19.30;;
9256;SDS011;4665;51.368;6.782;2023-05-02T00:17:30;20.60;;;18.50;;
9256;SDS011;4665;51.368;6.782;2023-05-02T00:19:55;23.33;;;20.63;;
9256;SDS011;4665;51.368;6.782;2023-05-02T00:22:21;23.50;;;20.73;;
9256;SDS011;4665;51.368;6.782;2023-05-02T00:24:46;28.63;;;20.43;;
9256;SDS011;4665;51.368;6.782;2023-05-02T00:27:12;26.37;;;22.67;;
9256;SDS011;4665;51.368;6.782;2023-05-02T00:29:38;27.23;;;23.77;;
9256;SDS011;4665;51.368;6.782;2023-05-02T00:32:04;28.87;;;24.13;;
9256;SDS011;4665;51.368;6.782;2023-05-02T00:34:30;29.77;;;24.93;;
9256;SDS011;4665;51.368;6.782;2023-05-02T00:36:56;30.13;;;24.67;;
9256;SDS011;4665;51.368;6.782;2023-05-02T00:39:21;32.30;;;25.00;;
9256;SDS011;4665;51.368;6.782;2023-05-02T00:41:46;29.67;;;25.13;;
9256;SDS011;4665;51.368;6.782;2023-05-02T00:44:12;28.00;;;24.07;;
9256;SDS011;4665;51.368;6.782;2023-05-02T00:46:37;29.40;;;23.97;;
9256;SDS011;4665;51.368;6.782;2023-05-02T00:49:03;28.07;;;25.03;;
9256;SDS011;4665;51.368;6.782;2023-05-02T00:51:28;33.77;;;26.67;;
9256;SDS011;4665;51.368;6.782;2023-05-02T00:53:54;31.47;;;25.53;;
9256;SDS011;4665;51.368;6.782;2023-05-02T00:56:21;28.43;;;23.60;;
9256;SDS011;4665;51.368;6.782;2023-05-02T00:58:47;26.87;;;22.20;;
9256;SDS011;4665;51.368;6.782;2023-05-02T01:12:03;29.83;;;25.00;;
9256;SDS011;4665;51.368;6.782;2023-05-02T01:14:33;34.20;;;27.53;;
9256;SDS011;4665;51.368;6.782;2023-05-02T01:17:05;33.17;;;27.30;;
9256;SDS011;4665;51.368;6.782;2023-05-02T01:19:35;34.60;;;28.47;;
9256;SDS011;4665;51.368;6.782;2023-05-02T01:22:05;38.00;;;28.70;;
9256;SDS011;4665;51.368;6.782;2023-05-02T01:24:42;38.47;;;28.97;;
9256;SDS011;4665;51.368;6.782;2023-05-02T01:30:00;38.97;;;28.30;;
9256;SDS011;4665;51.368;6.782;2023-05-02T01:32:27;37.80;;;26.97;;
9256;SDS011;4665;51.368;6.782;2023-05-02T01:34:57;36.00;;;26.33;;
9256;SDS011;4665;51.368;6.782;2023-05-02T01:37:25;36.83;;;26.43;;
9256;SDS011;4665;51.368;6.782;2023-05-02T01:39:53;30.23;;;23.73;;
9256;SDS011;4665;51.368;6.782;2023-05-02T01:42:20;32.03;;;25.13;;
9256;SDS011;4665;51.368;6.782;2023-05-02T01:44:47;33.30;;;25.97;;
9256;SDS011;4665;51.368;6.782;2023-05-02T01:47:15;33.60;;;25.63;;
9256;SDS011;4665;51.368;6.782;2023-05-02T01:49:42;31.83;;;25.70;;
9256;SDS011;4665;51.368;6.782;2023-05-02T01:52:10;33.53;;;25.93;;
9256;SDS011;4665;51.368;6.782;2023-05-02T01:54:37;33.33;;;24.47;;
9256;SDS011;4665;51.368;6.782;2023-05-02T01:57:04;32.17;;;24.40;;
9256;SDS011;4665;51.368;6.782;2023-05-02T01:59:32;30.50;;;24.20;;
9256;SDS011;4665;51.368;6.782;2023-05-02T02:02:00;30.93;;;23.80;;
9256;SDS011;4665;51.368;6.782;2023-05-02T02:04:26;32.50;;;24.13;;
9256;SDS011;4665;51.368;6.782;2023-05-02T02:07:01;34.77;;;25.47;;
9256;SDS011;4665;51.368;6.782;2023-05-02T02:09:30;31.73;;;23.43;;
9256;SDS011;4665;51.368;6.782;2023-05-02T02:12:01;30.73;;;22.97;;
9256;SDS011;4665;51.368;6.782;2023-05-02T02:14:29;31.63;;;23.97;;
9256;SDS011;4665;51.368;6.782;2023-05-02T02:16:58;31.87;;;24.53;;
9256;SDS011;4665;51.368;6.782;2023-05-02T02:19:25;33.47;;;24.27;;
9256;SDS011;4665;51.368;6.782;2023-05-02T02:21:53;32.83;;;24.13;;
9256;SDS011;4665;51.368;6.782;2023-05-02T02:24:22;28.17;;;22.63;;
9256;SDS011;4665;51.368;6.782;2023-05-02T02:26:48;32.83;;;22.90;;
9256;SDS011;4665;51.368;6.782;2023-05-02T02:29:14;29.77;;;20.93;;
9256;SDS011;4665;51.368;6.782;2023-05-02T02:31:40;27.17;;;20.53;;
9256;SDS011;4665;51.368;6.782;2023-05-02T02:34:05;31.10;;;22.13;;
9256;SDS011;4665;51.368;6.782;2023-05-02T02:36:44;26.43;;;20.70;;
9256;SDS011;4665;51.368;6.782;2023-05-02T02:39:27;27.67;;;20.93;;
9256;SDS011;4665;51.368;6.782;2023-05-02T02:46:59;31.43;;;22.07;;
9256;SDS011;4665;51.368;6.782;2023-05-02T02:49:50;28.47;;;20.90;;
9256;SDS011;4665;51.368;6.782;2023-05-02T02:55:30;28.53;;;20.67;;
9256;SDS011;4665;51.368;6.782;2023-05-02T03:00:56;28.77;;;20.30;;
9256;SDS011;4665;51.368;6.782;2023-05-02T03:03:24;26.77;;;19.60;;
9256;SDS011;4665;51.368;6.782;2023-05-02T03:05:53;25.20;;;18.23;;
9256;SDS011;4665;51.368;6.782;2023-05-02T03:08:20;25.30;;;18.77;;
9256;SDS011;4665;51.368;6.782;2023-05-02T03:10:45;26.70;;;17.77;;
9256;SDS011;4665;51.368;6.782;2023-05-02T03:13:11;23.73;;;17.33;;
9256;SDS011;4665;51.368;6.782;2023-05-02T03:18:17;21.53;;;17.30;;
9256;SDS011;4665;51.368;6.782;2023-05-02T03:20:43;23.50;;;16.40;;
9256;SDS011;4665;51.368;6.782;2023-05-02T03:23:09;18.83;;;14.50;;
9256;SDS011;4665;51.368;6.782;2023-05-02T03:25:34;22.00;;;15.10;;
9256;SDS011;4665;51.368;6.782;2023-05-02T03:28:00;20.43;;;15.30;;
9256;SDS011;4665;51.368;6.782;2023-05-02T03:30:25;21.30;;;14.80;;
9256;SDS011;4665;51.368;6.782;2023-05-02T03:32:51;17.80;;;13.83;;
9256;SDS011;4665;51.368;6.782;2023-05-02T03:35:16;18.67;;;14.17;;
9256;SDS011;4665;51.368;6.782;2023-05-02T03:37:42;15.83;;;11.70;;
9256;SDS011;4665;51.368;6.782;2023-05-02T03:40:08;16.83;;;12.87;;
9256;SDS011;4665;51.368;6.782;2023-05-02T03:42:34;13.07;;;10.17;;
9256;SDS011;4665;51.368;6.782;2023-05-02T03:45:05;14.10;;;11.33;;
9256;SDS011;4665;51.368;6.782;2023-05-02T03:47:31;14.50;;;10.77;;
9256;SDS011;4665;51.368;6.782;2023-05-02T03:49:57;16.03;;;10.80;;
9256;SDS011;4665;51.368;6.782;2023-05-02T03:52:23;11.00;;;9.43;;
9256;SDS011;4665;51.368;6.782;2023-05-02T03:54:49;11.40;;;9.37;;
9256;SDS011;4665;51.368;6.782;2023-05-02T03:57:14;12.33;;;9.63;;
9256;SDS011;4665;51.368;6.782;2023-05-02T03:59:40;13.20;;;9.67;;
9256;SDS011;4665;51.368;6.782;2023-05-02T04:02:06;11.27;;;9.30;;
9256;SDS011;4665;51.368;6.782;2023-05-02T04:04:32;11.50;;;9.30;;
9256;SDS011;4665;51.368;6.782;2023-05-02T04:06:57;11.80;;;9.57;;
9256;SDS011;4665;51.368;6.782;2023-05-02T04:09:22;12.17;;;9.40;;
9256;SDS011;4665;51.368;6.782;2023-05-02T04:11:49;13.57;;;9.73;;
9256;SDS011;4665;51.368;6.782;2023-05-02T04:14:14;12.27;;;9.60;;
9256;SDS011;4665;51.368;6.782;2023-05-02T04:16:40;13.67;;;9.70;;
9256;SDS011;4665;51.368;6.782;2023-05-02T04:19:05;11.97;;;9.10;;
9256;SDS011;4665;51.368;6.782;2023-05-02T04:21:30;13.57;;;9.60;;
9256;SDS011;4665;51.368;6.782;2023-05-02T04:23:56;13.77;;;9.87;;
9256;SDS011;4665;51.368;6.782;2023-05-02T04:26:21;10.77;;;9.00;;
9256;SDS011;4665;51.368;6.782;2023-05-02T04:28:49;15.63;;;9.57;;
9256;SDS011;4665;51.368;6.782;2023-05-02T04:31:15;12.63;;;9.53;;
9256;SDS011;4665;51.368;6.782;2023-05-02T04:33:40;12.63;;;9.33;;
9256;SDS011;4665;51.368;6.782;2023-05-02T04:36:05;11.00;;;9.43;;
9256;SDS011;4665;51.368;6.782;2023-05-02T04:38:31;13.23;;;10.07;;
9256;SDS011;4665;51.368;6.782;2023-05-02T04:40:57;12.57;;;9.70;;
9256;SDS011;4665;51.368;6.782;2023-05-02T04:43:22;11.87;;;9.93;;
9256;SDS011;4665;51.368;6.782;2023-05-02T04:45:47;15.33;;;10.60;;
9256;SDS011;4665;51.368;6.782;2023-05-02T04:48:13;13.50;;;10.37;;
9256;SDS011;4665;51.368;6.782;2023-05-02T04:50:38;15.33;;;11.23;;
9256;SDS011;4665;51.368;6.782;2023-05-02T04:53:03;16.60;;;11.37;;
9256;SDS011;4665;51.368;6.782;2023-05-02T04:55:29;18.73;;;11.57;;
9256;SDS011;4665;51.368;6.782;2023-05-02T04:57:54;16.27;;;11.17;;
9256;SDS011;4665;51.368;6.782;2023-05-02T05:00:20;18.87;;;12.93;;
9256;SDS011;4665;51.368;6.782;2023-05-02T05:02:45;16.13;;;13.07;;
9256;SDS011;4665;51.368;6.782;2023-05-02T05:05:11;17.90;;;12.93;;
9256;SDS011;4665;51.368;6.782;2023-05-02T05:07:36;16.73;;;12.97;;
9256;SDS011;4665;51.368;6.782;2023-05-02T05:10:02;23.13;;;16.20;;
9256;SDS011;4665;51.368;6.782;2023-05-02T05:12:27;24.73;;;16.20;;
9256;SDS011;4665;51.368;6.782;2023-05-02T05:14:53;23.00;;;15.77;;
9256;SDS011;4665;51.368;6.782;2023-05-02T05:17:18;19.57;;;15.30;;
9256;SDS011;4665;51.368;6.782;2023-05-02T05:19:43;20.93;;;15.23;;
9256;SDS011;4665;51.368;6.782;2023-05-02T05:22:09;23.03;;;16.27;;
9256;SDS011;4665;51.368;6.782;2023-05-02T05:24:34;17.10;;;12.77;;
9256;SDS011;4665;51.368;6.782;2023-05-02T05:26:59;18.80;;;13.17;;
9256;SDS011;4665;51.368;6.782;2023-05-02T05:29:25;13.80;;;11.17;;
9256;SDS011;4665;51.368;6.782;2023-05-02T05:31:50;12.07;;;9.07;;
9256;SDS011;4665;51.368;6.782;2023-05-02T05:34:15;11.70;;;8.33;;
9256;SDS011;4665;51.368;6.782;2023-05-02T05:36:41;9.87;;;8.00;;
9256;SDS011;4665;51.368;6.782;2023-05-02T05:39:07;9.27;;;7.37;;
9256;SDS011;4665;51.368;6.782;2023-05-02T05:41:33;14.03;;;7.90;;
9256;SDS011;4665;51.368;6.782;2023-05-02T05:43:59;11.20;;;8.17;;
9256;SDS011;4665;51.368;6.782;2023-05-02T05:46:24;8.90;;;8.00;;
9256;SDS011;4665;51.368;6.782;2023-05-02T05:48:50;9.67;;;8.27;;
9256;SDS011;4665;51.368;6.782;2023-05-02T05:51:15;15.17;;;10.17;;
9256;SDS011;4665;51.368;6.782;2023-05-02T05:53:40;10.97;;;8.53;;
9256;SDS011;4665;51.368;6.782;2023-05-02T05:56:09;11.80;;;8.70;;
9256;SDS011;4665;51.368;6.782;2023-05-02T05:58:36;14.10;;;8.20;;
9256;SDS011;4665;51.368;6.782;2023-05-02T06:01:02;11.77;;;6.43;;
9256;SDS011;4665;51.368;6.782;2023-05-02T06:03:27;8.77;;;5.40;;
9256;SDS011;4665;51.368;6.782;2023-05-02T06:05:53;9.20;;;5.03;;
9256;SDS011;4665;51.368;6.782;2023-05-02T06:08:18;9.00;;;5.33;;
9256;SDS011;4665;51.368;6.782;2023-05-02T06:10:46;12.43;;;5.47;;
9256;SDS011;4665;51.368;6.782;2023-05-02T06:13:11;8.13;;;4.90;;
9256;SDS011;4665;51.368;6.782;2023-05-02T06:15:37;10.87;;;5.03;;
9256;SDS011;4665;51.368;6.782;2023-05-02T06:18:02;9.30;;;5.07;;
9256;SDS011;4665;51.368;6.782;2023-05-02T06:20:28;6.17;;;4.83;;
9256;SDS011;4665;51.368;6.782;2023-05-02T06:22:53;7.83;;;4.50;;
9256;SDS011;4665;51.368;6.782;2023-05-02T06:25:19;8.93;;;5.00;;
9256;SDS011;4665;51.368;6.782;2023-05-02T06:27:44;12.63;;;4.70;;
9256;SDS011;4665;51.368;6.782;2023-05-02T06:30:09;12.73;;;5.37;;
9256;SDS011;4665;51.368;6.782;2023-05-02T06:32:35;6.97;;;4.57;;
9256;SDS011;4665;51.368;6.782;2023-05-02T06:35:00;12.47;;;4.40;;
9256;SDS011;4665;51.368;6.782;2023-05-02T06:37:26;8.33;;;4.60;;
9256;SDS011;4665;51.368;6.782;2023-05-02T06:39:51;7.37;;;4.33;;
9256;SDS011;4665;51.368;6.782;2023-05-02T06:42:17;7.43;;;4.63;;
9256;SDS011;4665;51.368;6.782;2023-05-02T06:44:42;8.80;;;4.83;;
9256;SDS011;4665;51.368;6.782;2023-05-02T06:47:07;8.67;;;4.50;;
9256;SDS011;4665;51.368;6.782;2023-05-02T06:49:33;8.33;;;4.20;;
9256;SDS011;4665;51.368;6.782;2023-05-02T06:51:58;8.90;;;4.57;;
9256;SDS011;4665;51.368;6.782;2023-05-02T06:54:24;6.67;;;4.23;;
9256;SDS011;4665;51.368;6.782;2023-05-02T06:56:50;6.67;;;4.20;;
9256;SDS011;4665;51.368;6.782;2023-05-02T06:59:15;11.07;;;5.87;;
9256;SDS011;4665;51.368;6.782;2023-05-02T07:01:42;11.13;;;5.20;;
9256;SDS011;4665;51.368;6.782;2023-05-02T07:04:08;8.60;;;4.80;;
9256;SDS011;4665;51.368;6.782;2023-05-02T07:06:33;11.27;;;4.90;;
9256;SDS011;4665;51.368;6.782;2023-05-02T07:08:58;9.63;;;3.03;;
9256;SDS011;4665;51.368;6.782;2023-05-02T07:11:24;7.33;;;2.60;;
9256;SDS011;4665;51.368;6.782;2023-05-02T07:13:50;3.73;;;2.43;;
9256;SDS011;4665;51.368;6.782;2023-05-02T07:16:15;3.93;;;2.90;;
9256;SDS011;4665;51.368;6.782;2023-05-02T07:18:41;4.23;;;2.60;;
9256;SDS011;4665;51.368;6.782;2023-05-02T07:21:07;4.67;;;2.47;;
9256;SDS011;4665;51.368;6.782;2023-05-02T07:23:32;2.77;;;2.47;;
9256;SDS011;4665;51.368;6.782;2023-05-02T07:25:58;7.67;;;2.80;;
9256;SDS011;4665;51.368;6.782;2023-05-02T07:28:23;7.73;;;2.87;;
9256;SDS011;4665;51.368;6.782;2023-05-02T07:30:49;4.90;;;2.77;;
9256;SDS011;4665;51.368;6.782;2023-05-02T07:33:14;8.07;;;2.40;;
9256;SDS011;4665;51.368;6.782;2023-05-02T07:35:40;2.80;;;2.50;;
9256;SDS011;4665;51.368;6.782;2023-05-02T07:38:05;4.63;;;2.50;;
9256;SDS011;4665;51.368;6.782;2023-05-02T07:40:30;6.37;;;2.60;;
9256;SDS011;4665;51.368;6.782;2023-05-02T07:42:56;6.17;;;3.10;;
9256;SDS011;4665;51.368;6.782;2023-05-02T07:45:24;8.97;;;3.93;;
9256;SDS011;4665;51.368;6.782;2023-05-02T07:47:50;8.63;;;3.93;;
9256;SDS011;4665;51.368;6.782;2023-05-02T07:50:15;9.27;;;3.90;;
9256;SDS011;4665;51.368;6.782;2023-05-02T07:52:41;5.77;;;3.63;;
9256;SDS011;4665;51.368;6.782;2023-05-02T07:55:06;10.23;;;3.90;;
9256;SDS011;4665;51.368;6.782;2023-05-02T07:57:32;5.83;;;3.27;;
9256;SDS011;4665;51.368;6.782;2023-05-02T07:59:57;11.07;;;3.90;;
9256;SDS011;4665;51.368;6.782;2023-05-02T08:02:23;8.50;;;3.40;;
9256;SDS011;4665;51.368;6.782;2023-05-02T08:04:50;8.20;;;3.30;;
9256;SDS011;4665;51.368;6.782;2023-05-02T08:07:15;4.83;;;2.80;;
9256;SDS011;4665;51.368;6.782;2023-05-02T08:09:41;5.73;;;3.23;;
9256;SDS011;4665;51.368;6.782;2023-05-02T08:12:06;6.50;;;3.10;;
9256;SDS011;4665;51.368;6.782;2023-05-02T08:14:32;7.57;;;2.83;;
9256;SDS011;4665;51.368;6.782;2023-05-02T08:16:58;5.80;;;3.17;;
9256;SDS011;4665;51.368;6.782;2023-05-02T08:19:24;5.37;;;2.90;;
9256;SDS011;4665;51.368;6.782;2023-05-02T08:21:51;8.33;;;3.43;;
9256;SDS011;4665;51.368;6.782;2023-05-02T08:24:18;5.23;;;3.10;;
9256;SDS011;4665;51.368;6.782;2023-05-02T08:26:43;5.37;;;2.80;;
9256;SDS011;4665;51.368;6.782;2023-05-02T08:29:08;5.40;;;3.13;;
9256;SDS011;4665;51.368;6.782;2023-05-02T08:31:35;4.73;;;2.90;;
9256;SDS011;4665;51.368;6.782;2023-05-02T08:34:01;9.03;;;3.67;;
9256;SDS011;4665;51.368;6.782;2023-05-02T08:36:26;5.80;;;2.70;;
9256;SDS011;4665;51.368;6.782;2023-05-02T08:38:52;7.20;;;3.30;;
9256;SDS011;4665;51.368;6.782;2023-05-02T08:41:18;7.43;;;2.97;;
9256;SDS011;4665;51.368;6.782;2023-05-02T08:43:47;4.53;;;2.40;;
9256;SDS011;4665;51.368;6.782;2023-05-02T08:46:13;4.33;;;2.30;;
9256;SDS011;4665;51.368;6.782;2023-05-02T08:48:40;6.57;;;2.77;;
9256;SDS011;4665;51.368;6.782;2023-05-02T08:51:08;3.30;;;2.07;;
9256;SDS011;4665;51.368;6.782;2023-05-02T08:53:38;5.73;;;2.37;;
9256;SDS011;4665;51.368;6.782;2023-05-02T08:56:07;2.37;;;2.17;;
9256;SDS011;4665;51.368;6.782;2023-05-02T08:58:34;3.10;;;2.13;;
9256;SDS011;4665;51.368;6.782;2023-05-02T09:01:01;3.70;;;2.07;;
9256;SDS011;4665;51.368;6.782;2023-05-02T09:03:31;4.33;;;2.20;;
9256;SDS011;4665;51.368;6.782;2023-05-02T09:06:02;4.10;;;2.93;;
9256;SDS011;4665;51.368;6.782;2023-05-02T09:08:28;6.03;;;3.00;;
9256;SDS011;4665;51.368;6.782;2023-05-02T09:10:53;5.67;;;2.73;;
9256;SDS011;4665;51.368;6.782;2023-05-02T09:16:02;5.13;;;2.47;;
9256;SDS011;4665;51.368;6.782;2023-05-02T09:18:34;4.37;;;2.80;;
9256;SDS011;4665;51.368;6.782;2023-05-02T09:21:03;5.63;;;3.27;;
9256;SDS011;4665;51.368;6.782;2023-05-02T09:23:31;7.60;;;3.17;;
9256;SDS011;4665;51.368;6.782;2023-05-02T09:28:59;5.67;;;2.93;;
9256;SDS011;4665;51.368;6.782;2023-05-02T09:31:29;7.80;;;3.20;;
9256;SDS011;4665;51.368;6.782;2023-05-02T09:34:19;6.40;;;2.90;;
9256;SDS011;4665;51.368;6.782;2023-05-02T09:36:44;8.23;;;4.97;;
9256;SDS011;4665;51.368;6.782;2023-05-02T09:39:15;6.17;;;4.97;;
9256;SDS011;4665;51.368;6.782;2023-05-02T09:41:42;8.47;;;4.93;;
9256;SDS011;4665;51.368;6.782;2023-05-02T09:44:09;5.23;;;3.70;;
9256;SDS011;4665;51.368;6.782;2023-05-02T09:46:54;5.73;;;3.53;;
9256;SDS011;4665;51.368;6.782;2023-05-02T09:49:38;3.57;;;3.27;;
9256;SDS011;4665;51.368;6.782;2023-05-02T09:52:11;6.47;;;3.67;;
9256;SDS011;4665;51.368;6.782;2023-05-02T09:54:41;6.73;;;3.97;;
9256;SDS011;4665;51.368;6.782;2023-05-02T09:57:06;5.93;;;4.03;;
9256;SDS011;4665;51.368;6.782;2023-05-02T09:59:32;6.80;;;4.43;;
9256;SDS011;4665;51.368;6.782;2023-05-02T10:02:02;5.93;;;3.87;;
9256;SDS011;4665;51.368;6.782;2023-05-02T10:04:29;10.37;;;4.00;;
9256;SDS011;4665;51.368;6.782;2023-05-02T10:06:55;5.57;;;3.33;;
9256;SDS011;4665;51.368;6.782;2023-05-02T10:09:21;6.60;;;4.13;;
9256;SDS011;4665;51.368;6.782;2023-05-02T10:11:56;7.53;;;3.87;;
9256;SDS011;4665;51.368;6.782;2023-05-02T10:14:29;4.47;;;3.70;;
9256;SDS011;4665;51.368;6.782;2023-05-02T10:16:59;5.90;;;3.70;;
9256;SDS011;4665;51.368;6.782;2023-05-02T10:22:23;7.63;;;4.03;;
9256;SDS011;4665;51.368;6.782;2023-05-02T10:24:49;5.47;;;3.50;;
9256;SDS011;4665;51.368;6.782;2023-05-02T10:27:16;7.17;;;3.43;;
9256;SDS011;4665;51.368;6.782;2023-05-02T10:29:42;7.13;;;3.10;;
9256;SDS011;4665;51.368;6.782;2023-05-02T10:32:08;5.47;;;3.00;;
9256;SDS011;4665;51.368;6.782;2023-05-02T10:34:35;6.63;;;3.30;;
9256;SDS011;4665;51.368;6.782;2023-05-02T10:37:00;5.53;;;3.50;;
9256;SDS011;4665;51.368;6.782;2023-05-02T10:39:26;4.07;;;2.83;;
9256;SDS011;4665;51.368;6.782;2023-05-02T10:41:53;5.73;;;3.40;;
9256;SDS011;4665;51.368;6.782;2023-05-02T10:44:41;7.53;;;3.40;;
9256;SDS011;4665;51.368;6.782;2023-05-02T10:47:25;8.37;;;3.70;;
9256;SDS011;4665;51.368;6.782;2023-05-02T10:52:24;6.80;;;4.23;;
9256;SDS011;4665;51.368;6.782;2023-05-02T11:00:25;8.17;;;3.87;;
9256;SDS011;4665;51.368;6.782;2023-05-02T11:02:52;6.03;;;3.00;;
9256;SDS011;4665;51.368;6.782;2023-05-02T11:05:17;6.73;;;3.27;;
9256;SDS011;4665;51.368;6.782;2023-05-02T11:07:43;5.93;;;3.20;;
9256;SDS011;4665;51.368;6.782;2023-05-02T11:12:43;6.00;;;3.27;;
9256;SDS011;4665;51.368;6.782;2023-05-02T11:17:57;7.40;;;3.50;;
9256;SDS011;4665;51.368;6.782;2023-05-02T11:20:26;6.47;;;3.53;;
9256;SDS011;4665;51.368;6.782;2023-05-02T11:22:53;5.47;;;3.07;;
9256;SDS011;4665;51.368;6.782;2023-05-02T11:25:38;11.23;;;4.17;;
9256;SDS011;4665;51.368;6.782;2023-05-02T11:28:06;7.33;;;3.67;;
9256;SDS011;4665;51.368;6.782;2023-05-02T11:30:36;4.23;;;2.90;;
9256;SDS011;4665;51.368;6.782;2023-05-02T11:35:33;4.73;;;3.20;;
9256;SDS011;4665;51.368;6.782;2023-05-02T11:40:27;5.77;;;3.67;;
9256;SDS011;4665;51.368;6.782;2023-05-02T11:42:54;5.03;;;3.27;;
9256;SDS011;4665;51.368;6.782;2023-05-02T11:45:20;6.27;;;3.50;;
9256;SDS011;4665;51.368;6.782;2023-05-02T11:47:47;7.73;;;3.20;;
9256;SDS011;4665;51.368;6.782;2023-05-02T11:50:14;4.63;;;2.53;;
9256;SDS011;4665;51.368;6.782;2023-05-02T11:52:41;4.47;;;3.00;;
9256;SDS011;4665;51.368;6.782;2023-05-02T11:55:11;4.73;;;2.90;;
9256;SDS011;4665;51.368;6.782;2023-05-02T11:57:39;6.10;;;3.27;;
9256;SDS011;4665;51.368;6.782;2023-05-02T12:00:05;7.93;;;2.80;;
9256;SDS011;4665;51.368;6.782;2023-05-02T12:05:05;5.80;;;3.37;;
9256;SDS011;4665;51.368;6.782;2023-05-02T12:07:36;4.07;;;3.40;;
9256;SDS011;4665;51.368;6.782;2023-05-02T12:10:13;4.23;;;3.60;;
9256;SDS011;4665;51.368;6.782;2023-05-02T12:12:40;6.90;;;3.63;;
9256;SDS011;4665;51.368;6.782;2023-05-02T12:15:08;8.10;;;2.93;;
9256;SDS011;4665;51.368;6.782;2023-05-02T12:17:46;3.20;;;2.90;;
9256;SDS011;4665;51.368;6.782;2023-05-02T12:20:16;6.27;;;3.00;;
9256;SDS011;4665;51.368;6.782;2023-05-02T12:22:41;4.57;;;3.50;;
9256;SDS011;4665;51.368;6.782;2023-05-02T12:25:07;5.63;;;3.93;;
9256;SDS011;4665;51.368;6.782;2023-05-02T12:27:32;6.63;;;4.10;;
9256;SDS011;4665;51.368;6.782;2023-05-02T12:29:59;4.37;;;3.80;;
9256;SDS011;4665;51.368;6.782;2023-05-02T12:32:29;4.13;;;3.63;;
9256;SDS011;4665;51.368;6.782;2023-05-02T12:34:55;3.67;;;2.83;;
9256;SDS011;4665;51.368;6.782;2023-05-02T12:37:22;3.80;;;3.23;;
9256;SDS011;4665;51.368;6.782;2023-05-02T12:39:54;4.30;;;2.83;;
9256;SDS011;4665;51.368;6.782;2023-05-02T12:42:21;3.27;;;2.80;;
9256;SDS011;4665;51.368;6.782;2023-05-02T12:44:48;3.90;;;2.40;;
9256;SDS011;4665;51.368;6.782;2023-05-02T12:47:18;2.97;;;2.67;;
9256;SDS011;4665;51.368;6.782;2023-05-02T12:52:19;5.57;;;3.50;;
9256;SDS011;4665;51.368;6.782;2023-05-02T12:54:46;3.73;;;3.37;;
9256;SDS011;4665;51.368;6.782;2023-05-02T12:57:22;6.57;;;4.57;;
9256;SDS011;4665;51.368;6.782;2023-05-02T12:59:50;7.80;;;4.00;;
9256;SDS011;4665;51.368;6.782;2023-05-02T13:02:19;3.73;;;3.27;;
9256;SDS011;4665;51.368;6.782;2023-05-02T13:04:45;4.03;;;2.80;;
9256;SDS011;4665;51.368;6.782;2023-05-02T13:07:11;5.17;;;2.70;;
9256;SDS011;4665;51.368;6.782;2023-05-02T13:09:36;8.50;;;3.17;;
9256;SDS011;4665;51.368;6.782;2023-05-02T13:12:02;3.73;;;2.50;;
9256;SDS011;4665;51.368;6.782;2023-05-02T13:14:28;4.13;;;3.10;;
9256;SDS011;4665;51.368;6.782;2023-05-02T13:16:54;3.33;;;3.03;;
9256;SDS011;4665;51.368;6.782;2023-05-02T13:19:19;5.23;;;3.30;;
9256;SDS011;4665;51.368;6.782;2023-05-02T13:21:46;6.73;;;3.80;;
9256;SDS011;4665;51.368;6.782;2023-05-02T13:24:12;4.10;;;3.27;;
9256;SDS011;4665;51.368;6.782;2023-05-02T13:26:38;4.77;;;3.27;;
9256;SDS011;4665;51.368;6.782;2023-05-02T13:29:04;5.90;;;3.30;;
9256;SDS011;4665;51.368;6.782;2023-05-02T13:31:30;3.37;;;2.63;;
9256;SDS011;4665;51.368;6.782;2023-05-02T13:33:55;3.83;;;3.00;;
9256;SDS011;4665;51.368;6.782;2023-05-02T13:36:20;7.37;;;3.80;;
9256;SDS011;4665;51.368;6.782;2023-05-02T13:38:46;10.17;;;3.70;;
9256;SDS011;4665;51.368;6.782;2023-05-02T13:41:11;7.23;;;4.13;;
9256;SDS011;4665;51.368;6.782;2023-05-02T13:43:37;6.83;;;3.77;;
9256;SDS011;4665;51.368;6.782;2023-05-02T13:46:04;6.13;;;3.73;;
9256;SDS011;4665;51.368;6.782;2023-05-02T13:48:30;4.70;;;3.70;;
9256;SDS011;4665;51.368;6.782;2023-05-02T13:50:55;4.60;;;3.77;;
9256;SDS011;4665;51.368;6.782;2023-05-02T13:53:20;7.00;;;4.40;;
9256;SDS011;4665;51.368;6.782;2023-05-02T13:55:46;5.70;;;3.80;;
9256;SDS011;4665;51.368;6.782;2023-05-02T13:58:11;5.33;;;3.30;;
9256;SDS011;4665;51.368;6.782;2023-05-02T14:00:37;7.20;;;3.60;;
9256;SDS011;4665;51.368;6.782;2023-05-02T14:03:02;7.57;;;3.30;;
9256;SDS011;4665;51.368;6.782;2023-05-02T14:05:29;4.60;;;3.30;;
9256;SDS011;4665;51.368;6.782;2023-05-02T14:07:54;4.83;;;3.90;;
9256;SDS011;4665;51.368;6.782;2023-05-02T14:10:20;8.17;;;3.97;;
9256;SDS011;4665;51.368;6.782;2023-05-02T14:12:45;7.93;;;3.90;;
9256;SDS011;4665;51.368;6.782;2023-05-02T14:15:10;8.20;;;3.50;;
9256;SDS011;4665;51.368;6.782;2023-05-02T14:17:36;3.97;;;3.27;;
9256;SDS011;4665;51.368;6.782;2023-05-02T14:20:01;4.90;;;3.53;;
9256;SDS011;4665;51.368;6.782;2023-05-02T14:22:27;5.40;;;3.47;;
9256;SDS011;4665;51.368;6.782;2023-05-02T14:24:52;3.70;;;3.23;;
9256;SDS011;4665;51.368;6.782;2023-05-02T14:27:18;6.23;;;3.63;;
9256;SDS011;4665;51.368;6.782;2023-05-02T14:29:46;7.27;;;3.80;;
9256;SDS011;4665;51.368;6.782;2023-05-02T14:32:12;5.23;;;4.07;;
9256;SDS011;4665;51.368;6.782;2023-05-02T14:34:38;4.77;;;3.77;;
9256;SDS011;4665;51.368;6.782;2023-05-02T14:37:04;8.63;;;3.60;;
9256;SDS011;4665;51.368;6.782;2023-05-02T14:39:30;3.87;;;2.87;;
9256;SDS011;4665;51.368;6.782;2023-05-02T14:41:55;4.07;;;3.50;;
9256;SDS011;4665;51.368;6.782;2023-05-02T14:44:21;8.33;;;4.70;;
9256;SDS011;4665;51.368;6.782;2023-05-02T14:46:46;6.77;;;3.93;;
9256;SDS011;4665;51.368;6.782;2023-05-02T14:49:12;5.60;;;3.50;;
9256;SDS011;4665;51.368;6.782;2023-05-02T14:51:37;5.43;;;3.70;;
9256;SDS011;4665;51.368;6.782;2023-05-02T14:54:03;8.90;;;3.70;;
9256;SDS011;4665;51.368;6.782;2023-05-02T14:56:30;5.13;;;3.40;;
9256;SDS011;4665;51.368;6.782;2023-05-02T14:58:56;4.97;;;3.67;;
9256;SDS011;4665;51.368;6.782;2023-05-02T15:01:21;6.47;;;3.90;;
9256;SDS011;4665;51.368;6.782;2023-05-02T15:03:47;4.83;;;3.67;;
9256;SDS011;4665;51.368;6.782;2023-05-02T15:06:14;8.33;;;3.80;;
9256;SDS011;4665;51.368;6.782;2023-05-02T15:08:40;6.77;;;3.50;;
9256;SDS011;4665;51.368;6.782;2023-05-02T15:11:08;5.90;;;3.50;;
9256;SDS011;4665;51.368;6.782;2023-05-02T15:13:36;4.00;;;2.90;;
9256;SDS011;4665;51.368;6.782;2023-05-02T15:16:02;5.47;;;3.40;;
9256;SDS011;4665;51.368;6.782;2023-05-02T15:18:28;8.70;;;3.50;;
9256;SDS011;4665;51.368;6.782;2023-05-02T15:20:54;5.23;;;3.50;;
9256;SDS011;4665;51.368;6.782;2023-05-02T15:23:19;8.83;;;3.77;;
9256;SDS011;4665;51.368;6.782;2023-05-02T15:25:45;8.37;;;3.80;;
9256;SDS011;4665;51.368;6.782;2023-05-02T15:28:11;9.97;;;3.40;;
9256;SDS011;4665;51.368;6.782;2023-05-02T15:30:36;8.10;;;3.40;;
9256;SDS011;4665;51.368;6.782;2023-05-02T15:33:01;4.40;;;3.60;;
9256;SDS011;4665;51.368;6.782;2023-05-02T15:35:27;9.80;;;4.10;;
9256;SDS011;4665;51.368;6.782;2023-05-02T15:37:52;8.57;;;3.57;;
9256;SDS011;4665;51.368;6.782;2023-05-02T15:40:18;6.67;;;3.77;;
9256;SDS011;4665;51.368;6.782;2023-05-02T15:42:43;6.77;;;3.20;;
9256;SDS011;4665;51.368;6.782;2023-05-02T15:45:12;7.90;;;3.27;;
9256;SDS011;4665;51.368;6.782;2023-05-02T15:47:37;8.90;;;3.57;;
9256;SDS011;4665;51.368;6.782;2023-05-02T15:50:03;9.53;;;3.70;;
9256;SDS011;4665;51.368;6.782;2023-05-02T15:52:29;6.63;;;3.73;;
9256;SDS011;4665;51.368;6.782;2023-05-02T15:54:55;6.07;;;3.97;;
9256;SDS011;4665;51.368;6.782;2023-05-02T15:57:20;6.50;;;4.00;;
9256;SDS011;4665;51.368;6.782;2023-05-02T15:59:46;4.77;;;3.27;;
9256;SDS011;4665;51.368;6.782;2023-05-02T16:02:11;6.73;;;3.30;;